createdAt,value
2022-11-09T00:02:11.583Z,100803.65
2022-11-09T00:04:40.405Z,100800.89
2022-11-09T00:07:09.403Z,100794.20
2022-11-09T00:09:39.830Z,100798.84
2022-11-09T00:12:08.980Z,100799.17
2022-11-09T00:14:38.187Z,100797.63
2022-11-09T00:17:07.132Z,100798.83
2022-11-09T00:19:36.281Z,100798.13
2022-11-09T00:22:05.108Z,100803.57
2022-11-09T00:24:34.095Z,100809.34
2022-11-09T00:27:03.073Z,100814.84
2022-11-09T00:29:31.926Z,100815.13
2022-11-09T00:32:00.726Z,100808.54
2022-11-09T00:34:32.582Z,100809.64
2022-11-09T00:37:01.401Z,100807.46
2022-11-09T00:39:30.110Z,100814.27
2022-11-09T00:42:00.353Z,100806.40
2022-11-09T00:44:31.811Z,100813.60
2022-11-09T00:47:00.500Z,100814.70
2022-11-09T00:49:29.502Z,100810.52
2022-11-09T00:52:02.759Z,100811.64
2022-11-09T00:54:34.002Z,100810.33
2022-11-09T00:57:03.914Z,100809.23
2022-11-09T00:59:32.940Z,100811.54
2022-11-09T01:02:01.656Z,100812.54
2022-11-09T01:04:30.632Z,100808.91
2022-11-09T01:07:00.684Z,100811.84
2022-11-09T01:09:29.574Z,100812.77
2022-11-09T01:11:58.327Z,100806.57
2022-11-09T01:14:27.073Z,100801.20
2022-11-09T01:16:56.492Z,100808.02
2022-11-09T01:19:27.719Z,100809.49
2022-11-09T01:21:56.658Z,100810.52
2022-11-09T01:24:25.506Z,100805.06
2022-11-09T01:26:56.350Z,100803.26
2022-11-09T01:29:25.127Z,100803.27
2022-11-09T01:31:56.068Z,100800.40
2022-11-09T01:34:29.787Z,100795.13
2022-11-09T01:36:58.739Z,100800.54
2022-11-09T01:39:27.515Z,100797.77
2022-11-09T01:41:56.225Z,100800.54
2022-11-09T01:44:28.175Z,100801.27
2022-11-09T01:47:00.503Z,100797.12
2022-11-09T01:49:40.391Z,100791.77
2022-11-09T01:52:16.821Z,100790.11
2022-11-09T01:54:48.007Z,100788.13
2022-11-09T01:57:21.819Z,100783.90
2022-11-09T01:59:55.353Z,100783.17
2022-11-09T02:02:25.710Z,100787.84
2022-11-09T02:05:00.951Z,100784.10
2022-11-09T02:07:30.330Z,100780.13
2022-11-09T02:10:03.997Z,100776.48
2022-11-09T02:12:36.307Z,100777.11
2022-11-09T02:15:09.221Z,100781.70
2022-11-09T02:17:41.752Z,100778.97
2022-11-09T02:20:13.247Z,100780.04
2022-11-09T02:22:42.620Z,100777.14
2022-11-09T02:25:12.661Z,100771.72
2022-11-09T02:27:43.072Z,100766.14
2022-11-09T02:30:15.117Z,100760.65
2022-11-09T02:32:47.452Z,100755.08
2022-11-09T02:35:16.359Z,100757.23
2022-11-09T02:37:59.400Z,100758.86
2022-11-09T02:40:32.629Z,100752.98
2022-11-09T02:43:02.609Z,100753.27
2022-11-09T02:45:31.280Z,100752.71
2022-11-09T02:48:00.139Z,100755.89
2022-11-09T02:50:29.384Z,100750.45
2022-11-09T02:52:58.604Z,100760.92
2022-11-09T02:55:27.816Z,100766.73
2022-11-09T02:57:56.887Z,100757.00
2022-11-09T03:00:25.959Z,100758.92
2022-11-09T03:02:56.376Z,100759.30
2022-11-09T03:05:25.542Z,100758.14
2022-11-09T03:07:54.515Z,100756.31
2022-11-09T03:10:24.110Z,100768.16
2022-11-09T03:12:55.490Z,100772.23
2022-11-09T03:15:24.344Z,100771.61
2022-11-09T03:17:54.322Z,100767.02
2022-11-09T03:20:25.716Z,100770.04
2022-11-09T03:22:58.728Z,100764.61
2022-11-09T03:25:28.425Z,100755.36
2022-11-09T03:28:01.420Z,100754.84
2022-11-09T03:30:30.582Z,100741.27
2022-11-09T03:33:00.819Z,100740.73
2022-11-09T03:35:30.017Z,100744.20
2022-11-09T03:37:58.909Z,100742.85
2022-11-09T03:40:28.482Z,100734.95
2022-11-09T03:42:58.408Z,100748.52
2022-11-09T03:45:27.857Z,100757.49
2022-11-09T03:50:57.268Z,100751.33
2022-11-09T03:53:26.019Z,100758.29
2022-11-09T03:55:56.728Z,100751.63
2022-11-09T03:58:25.475Z,100743.45
2022-11-09T04:00:54.211Z,100748.14
2022-11-09T04:03:23.192Z,100742.71
2022-11-09T04:05:54.800Z,100747.66
2022-11-09T04:08:24.126Z,100747.39
2022-11-09T04:10:53.020Z,100748.05
2022-11-09T04:13:22.062Z,100748.71
2022-11-09T04:15:51.062Z,100739.27
2022-11-09T04:18:24.792Z,100739.35
2022-11-09T04:20:56.293Z,100739.12
2022-11-09T04:23:25.041Z,100742.93
2022-11-09T04:25:54.106Z,100736.14
2022-11-09T04:28:22.775Z,100741.48
2022-11-09T04:30:51.651Z,100743.44
2022-11-09T04:33:22.214Z,100748.82
2022-11-09T04:35:51.219Z,100750.05
2022-11-09T04:38:21.923Z,100752.61
2022-11-09T04:40:50.792Z,100750.97
2022-11-09T04:43:19.804Z,100748.66
2022-11-09T04:45:49.779Z,100747.73
2022-11-09T04:48:18.412Z,100744.14
2022-11-09T04:50:47.215Z,100736.34
2022-11-09T04:53:17.039Z,100732.82
2022-11-09T04:55:45.816Z,100730.94
2022-11-09T04:58:14.731Z,100728.06
2022-11-09T05:00:43.470Z,100730.41
2022-11-09T05:03:12.413Z,100733.80
2022-11-09T05:05:48.014Z,100730.11
2022-11-09T05:08:17.190Z,100727.30
2022-11-09T05:10:46.099Z,100719.15
2022-11-09T05:13:18.810Z,100715.43
2022-11-09T05:15:47.717Z,100723.41
2022-11-09T05:18:16.361Z,100729.88
2022-11-09T05:20:45.042Z,100731.47
2022-11-09T05:23:31.841Z,100730.67
2022-11-09T05:26:00.604Z,100733.02
2022-11-09T05:28:29.260Z,100731.45
2022-11-09T05:30:58.054Z,100732.69
2022-11-09T05:33:30.493Z,100730.60
2022-11-09T05:35:59.514Z,100730.83
2022-11-09T05:38:30.498Z,100731.30
2022-11-09T05:40:59.198Z,100739.38
2022-11-09T05:43:33.362Z,100739.71
2022-11-09T05:46:06.349Z,100723.65
2022-11-09T05:48:35.968Z,100715.39
2022-11-09T05:53:49.808Z,100735.61
2022-11-09T05:56:18.810Z,100733.64
2022-11-09T05:59:09.432Z,100741.30
2022-11-09T06:01:38.305Z,100742.34
2022-11-09T06:04:07.058Z,100742.13
2022-11-09T06:06:35.799Z,100737.55
2022-11-09T06:09:07.516Z,100737.38
2022-11-09T06:11:38.815Z,100740.39
2022-11-09T06:14:08.137Z,100739.00
2022-11-09T06:16:37.489Z,100729.87
2022-11-09T06:19:06.534Z,100729.24
2022-11-09T06:21:35.580Z,100734.84
2022-11-09T06:24:05.181Z,100736.84
2022-11-09T06:26:34.162Z,100738.73
2022-11-09T06:29:03.428Z,100738.10
2022-11-09T06:31:32.227Z,100746.83
2022-11-09T06:34:02.831Z,100749.48
2022-11-09T06:36:31.535Z,100746.81
2022-11-09T06:39:00.639Z,100739.70
2022-11-09T06:41:30.524Z,100745.78
2022-11-09T06:43:59.347Z,100749.22
2022-11-09T06:46:28.049Z,100744.59
2022-11-09T06:48:59.302Z,100743.59
2022-11-09T06:51:28.022Z,100738.88
2022-11-09T06:53:56.996Z,100744.52
2022-11-09T06:56:25.680Z,100743.35
2022-11-09T06:58:57.221Z,100740.15
2022-11-09T07:01:28.994Z,100736.34
2022-11-09T07:04:00.600Z,100727.89
2022-11-09T07:06:29.653Z,100730.00
2022-11-09T07:08:58.659Z,100734.33
2022-11-09T07:11:27.577Z,100735.65
2022-11-09T07:13:57.643Z,100737.92
2022-11-09T07:16:26.488Z,100735.58
2022-11-09T07:18:55.379Z,100735.52
2022-11-09T07:21:24.273Z,100736.54
2022-11-09T07:23:55.542Z,100743.06
2022-11-09T07:26:24.223Z,100742.70
2022-11-09T07:28:57.258Z,100744.29
2022-11-09T07:31:28.633Z,100746.35
2022-11-09T07:34:00.676Z,100745.04
2022-11-09T07:36:29.563Z,100750.91
2022-11-09T07:38:58.242Z,100751.01
2022-11-09T07:41:31.945Z,100751.71
2022-11-09T07:44:03.927Z,100749.98
2022-11-09T07:46:34.924Z,100751.55
2022-11-09T07:49:06.355Z,100751.55
2022-11-09T07:51:36.362Z,100753.61
2022-11-09T07:54:05.703Z,100758.64
2022-11-09T07:56:34.470Z,100754.13
2022-11-09T07:59:04.043Z,100748.66
2022-11-09T08:01:32.854Z,100742.55
2022-11-09T08:04:02.099Z,100744.79
2022-11-09T08:06:31.645Z,100745.68
2022-11-09T08:09:00.595Z,100751.84
2022-11-09T08:11:32.243Z,100763.77
2022-11-09T08:14:01.068Z,100760.29
2022-11-09T08:16:34.872Z,100766.31
2022-11-09T08:19:08.361Z,100764.86
2022-11-09T08:21:37.736Z,100759.33
2022-11-09T08:24:08.020Z,100755.37
2022-11-09T08:26:36.741Z,100746.11
2022-11-09T08:29:05.893Z,100740.21
2022-11-09T08:31:34.773Z,100741.13
2022-11-09T08:34:03.814Z,100741.31
2022-11-09T08:36:33.280Z,100746.33
2022-11-09T08:39:02.472Z,100744.60
2022-11-09T08:41:35.165Z,100737.48
2022-11-09T08:44:04.740Z,100737.80
2022-11-09T08:46:40.808Z,100742.07
2022-11-09T08:49:10.344Z,100737.70
2022-11-09T08:51:42.253Z,100746.95
2022-11-09T08:54:12.920Z,100741.67
2022-11-09T08:56:41.847Z,100744.30
2022-11-09T08:59:11.173Z,100737.45
2022-11-09T09:01:39.926Z,100733.65
2022-11-09T09:04:08.750Z,100730.50
2022-11-09T09:06:37.710Z,100728.16
2022-11-09T09:09:06.488Z,100732.39
2022-11-09T09:11:35.459Z,100739.69
2022-11-09T09:14:04.627Z,100743.75
2022-11-09T09:16:33.675Z,100743.15
2022-11-09T09:19:02.380Z,100746.54
2022-11-09T09:21:31.253Z,100747.45
2022-11-09T09:24:00.571Z,100740.83
2022-11-09T09:26:29.244Z,100742.80
2022-11-09T09:29:06.887Z,100747.87
2022-11-09T09:31:35.777Z,100748.43
2022-11-09T09:34:04.507Z,100760.70
2022-11-09T09:36:34.909Z,100756.63
2022-11-09T09:39:06.643Z,100752.06
2022-11-09T09:41:39.277Z,100750.38
2022-11-09T09:44:20.349Z,100747.14
2022-11-09T09:47:04.983Z,100755.61
2022-11-09T09:49:40.003Z,100756.19
2022-11-09T09:52:20.122Z,100752.77
2022-11-09T09:54:57.946Z,100746.79
2022-11-09T09:57:29.222Z,100751.42
2022-11-09T10:00:01.641Z,100748.10
2022-11-09T10:02:46.532Z,100756.80
2022-11-09T10:05:20.520Z,100756.02
2022-11-09T10:07:57.128Z,100753.92
2022-11-09T10:10:45.734Z,100759.34
2022-11-09T10:13:37.061Z,100759.00
2022-11-09T10:16:14.588Z,100761.10
2022-11-09T10:19:00.347Z,100755.73
2022-11-09T10:21:37.432Z,100742.96
2022-11-09T10:24:23.309Z,100734.40
2022-11-09T10:26:54.650Z,100737.36
2022-11-09T10:29:25.504Z,100731.45
2022-11-09T10:31:57.439Z,100735.30
2022-11-09T10:34:29.465Z,100731.77
2022-11-09T10:37:10.518Z,100737.89
2022-11-09T10:39:47.150Z,100743.15
2022-11-09T10:42:34.677Z,100749.81
2022-11-09T10:45:29.641Z,100739.52
2022-11-09T10:48:34.856Z,100748.88
2022-11-09T10:51:40.936Z,100743.00
2022-11-09T10:54:31.809Z,100737.45
2022-11-09T10:57:22.473Z,100738.36
2022-11-09T11:00:17.521Z,100734.71
2022-11-09T11:03:15.997Z,100740.70
2022-11-09T11:06:06.126Z,100737.70
2022-11-09T11:09:13.897Z,100737.52
2022-11-09T11:12:15.361Z,100731.21
2022-11-09T11:15:03.582Z,100730.95
2022-11-09T11:17:59.957Z,100739.08
2022-11-09T11:20:47.772Z,100739.84
2022-11-09T11:23:36.394Z,100736.29
2022-11-09T11:26:37.617Z,100746.94
2022-11-09T11:29:38.678Z,100747.23
2022-11-09T11:32:26.579Z,100749.52
2022-11-09T11:35:18.798Z,100750.21
2022-11-09T11:38:22.387Z,100741.56
2022-11-09T11:41:35.950Z,100736.65
2022-11-09T11:44:39.570Z,100736.36
2022-11-09T11:47:36.168Z,100740.27
2022-11-09T11:50:32.120Z,100744.86
2022-11-09T11:53:33.369Z,100749.20
2022-11-09T11:56:26.681Z,100754.15
2022-11-09T11:59:35.856Z,100745.36
2022-11-09T12:02:55.490Z,100745.73
2022-11-09T12:06:12.086Z,100747.73
2022-11-09T12:09:31.518Z,100743.67
2022-11-09T12:12:29.559Z,100739.71
2022-11-09T12:15:29.258Z,100744.93
2022-11-09T12:18:31.590Z,100752.00
2022-11-09T12:21:26.847Z,100754.73
2022-11-09T12:24:23.854Z,100759.13
2022-11-09T12:27:32.009Z,100766.73
2022-11-09T12:30:23.661Z,100766.20
2022-11-09T12:33:17.171Z,100765.48
2022-11-09T12:36:11.886Z,100766.02
2022-11-09T12:39:06.096Z,100757.35
2022-11-09T12:41:58.478Z,100751.15
2022-11-09T12:44:57.750Z,100744.73
2022-11-09T12:47:45.764Z,100745.40
2022-11-09T12:50:34.656Z,100748.07
2022-11-09T12:53:28.705Z,100747.06
2022-11-09T12:56:22.077Z,100742.55
2022-11-09T12:59:33.446Z,100739.41
2022-11-09T13:02:31.255Z,100733.41
2022-11-09T13:05:33.107Z,100744.64
2022-11-09T13:08:28.504Z,100752.59
2022-11-09T13:11:35.796Z,100745.78
2022-11-09T13:18:03.913Z,100739.19
2022-11-09T13:20:56.852Z,100727.40
2022-11-09T13:24:04.478Z,100725.08
2022-11-09T13:27:28.410Z,100736.31
2022-11-09T13:30:49.065Z,100740.02
2022-11-09T13:33:38.628Z,100740.11
2022-11-09T13:36:26.263Z,100737.48
2022-11-09T13:39:32.689Z,100733.84
2022-11-09T13:42:28.407Z,100736.00
2022-11-09T13:45:27.276Z,100734.76
2022-11-09T13:48:29.139Z,100735.47
2022-11-09T13:51:19.726Z,100741.52
2022-11-09T13:54:30.453Z,100742.35
2022-11-09T13:57:18.269Z,100740.05
2022-11-09T14:00:14.386Z,100739.55
2022-11-09T14:03:06.110Z,100737.40
2022-11-09T14:05:55.809Z,100731.54
2022-11-09T14:08:44.007Z,100726.48
2022-11-09T14:12:00.217Z,100726.32
2022-11-09T14:15:11.741Z,100741.59
2022-11-09T14:18:13.109Z,100735.63
2022-11-09T14:21:22.633Z,100743.55
2022-11-09T14:24:17.804Z,100747.19
2022-11-09T14:27:17.041Z,100743.34
2022-11-09T14:30:18.876Z,100749.95
2022-11-09T14:33:21.681Z,100750.99
2022-11-09T14:36:12.897Z,100760.77
2022-11-09T14:39:03.961Z,100762.39
2022-11-09T14:41:55.339Z,100753.59
2022-11-09T14:44:45.737Z,100750.05
2022-11-09T14:47:38.883Z,100748.08
2022-11-09T14:50:30.585Z,100750.98
2022-11-09T14:53:21.831Z,100753.39
2022-11-09T14:56:12.507Z,100755.43
2022-11-09T14:59:04.098Z,100755.38
2022-11-09T15:02:01.313Z,100761.70
2022-11-09T15:04:56.264Z,100761.09
2022-11-09T15:07:49.097Z,100764.19
2022-11-09T15:10:37.972Z,100770.88
2022-11-09T15:13:33.903Z,100768.23
2022-11-09T15:16:24.019Z,100774.79
2022-11-09T15:19:24.066Z,100782.16
2022-11-09T15:22:43.314Z,100779.47
2022-11-09T15:25:34.567Z,100778.29
2022-11-09T15:28:25.382Z,100776.54
2022-11-09T15:31:16.004Z,100773.77
2022-11-09T15:34:24.003Z,100770.11
2022-11-09T15:37:24.369Z,100771.33
2022-11-09T15:40:21.918Z,100790.96
2022-11-09T15:43:09.901Z,100788.52
2022-11-09T15:45:59.610Z,100785.48
2022-11-09T15:48:47.359Z,100792.36
2022-11-09T15:51:37.186Z,100789.27
2022-11-09T15:54:25.049Z,100797.70
2022-11-09T15:57:18.657Z,100796.70
2022-11-09T16:00:19.534Z,100799.88
2022-11-09T16:03:09.900Z,100803.29
2022-11-09T16:05:58.861Z,100803.10
2022-11-09T16:08:48.940Z,100796.98
2022-11-09T16:11:36.683Z,100790.63
2022-11-09T16:14:30.441Z,100780.70
2022-11-09T16:17:22.315Z,100776.02
2022-11-09T16:20:11.937Z,100778.81
2022-11-09T16:22:59.659Z,100781.77
2022-11-09T16:25:49.330Z,100778.39
2022-11-09T16:28:39.605Z,100779.60
2022-11-09T16:31:50.329Z,100780.69
2022-11-09T16:34:36.562Z,100783.89
2022-11-09T16:37:27.713Z,100789.67
2022-11-09T16:40:17.991Z,100796.62
2022-11-09T16:43:05.577Z,100787.85
2022-11-09T16:45:53.203Z,100783.41
2022-11-09T16:48:42.091Z,100776.80
2022-11-09T16:51:30.508Z,100776.30
2022-11-09T16:54:18.165Z,100782.00
2022-11-09T16:57:06.779Z,100786.87
2022-11-09T17:02:56.719Z,100780.94
2022-11-09T17:05:44.649Z,100779.63
2022-11-09T17:08:32.729Z,100778.16
2022-11-09T17:11:20.751Z,100779.23
2022-11-09T17:14:10.054Z,100780.85
2022-11-09T17:16:58.159Z,100779.39
2022-11-09T17:19:46.210Z,100785.98
2022-11-09T17:22:34.141Z,100782.79
2022-11-09T17:25:22.110Z,100791.40
2022-11-09T17:28:10.181Z,100796.52
2022-11-09T17:30:58.455Z,100798.30
2022-11-09T17:33:48.898Z,100801.44
2022-11-09T17:37:02.331Z,100807.77
2022-11-09T17:39:45.603Z,100808.52
2022-11-09T17:42:35.121Z,100804.23
2022-11-09T17:45:23.037Z,100803.95
2022-11-09T17:48:11.484Z,100801.45
2022-11-09T17:51:01.440Z,100796.08
2022-11-09T17:53:49.664Z,100800.13
2022-11-09T17:56:37.942Z,100794.20
2022-11-09T17:59:29.673Z,100784.72
2022-11-09T18:02:18.143Z,100785.59
2022-11-09T18:05:08.019Z,100786.39
2022-11-09T18:07:55.588Z,100791.86
2022-11-09T18:10:49.612Z,100794.82
2022-11-09T18:13:38.454Z,100798.34
2022-11-09T18:16:27.737Z,100789.96
2022-11-09T18:19:15.744Z,100789.66
2022-11-09T18:22:04.904Z,100791.14
2022-11-09T18:24:54.796Z,100794.49
2022-11-09T18:27:42.297Z,100790.77
2022-11-09T18:30:31.368Z,100783.61
2022-11-09T18:33:20.629Z,100783.32
2022-11-09T18:36:11.792Z,100785.88
2022-11-09T18:39:02.810Z,100786.03
2022-11-09T18:41:51.685Z,100792.34
2022-11-09T18:44:40.035Z,100795.66
2022-11-09T18:47:28.358Z,100798.17
2022-11-09T18:50:17.515Z,100796.62
2022-11-09T18:53:05.290Z,100791.70
2022-11-09T18:56:02.276Z,100790.92
2022-11-09T18:58:59.355Z,100784.77
2022-11-09T19:01:47.478Z,100789.02
2022-11-09T19:04:35.488Z,100790.85
2022-11-09T19:07:22.941Z,100794.00
2022-11-09T19:10:10.827Z,100797.25
2022-11-09T19:12:59.978Z,100807.34
2022-11-09T19:15:50.006Z,100807.77
2022-11-09T19:18:42.216Z,100808.73
2022-11-09T19:21:40.191Z,100809.38
2022-11-09T19:24:29.685Z,100808.02
2022-11-09T19:27:18.053Z,100810.42
2022-11-09T19:30:09.915Z,100814.55
2022-11-09T19:32:59.650Z,100814.17
2022-11-09T19:36:23.355Z,100819.17
2022-11-09T19:39:01.210Z,100814.86
2022-11-09T19:41:49.287Z,100819.56
2022-11-09T19:44:36.688Z,100818.39
2022-11-09T19:47:24.443Z,100822.39
2022-11-09T19:50:12.688Z,100825.39
2022-11-09T19:53:00.781Z,100822.25
2022-11-09T19:55:49.877Z,100825.55
2022-11-09T19:58:37.978Z,100822.86
2022-11-09T20:01:26.344Z,100828.98
2022-11-09T20:04:14.643Z,100828.13
2022-11-09T20:07:24.834Z,100831.55
2022-11-09T20:10:13.596Z,100834.62
2022-11-09T20:13:02.295Z,100836.14
2022-11-09T20:15:51.754Z,100841.52
2022-11-09T20:18:39.761Z,100844.16
2022-11-09T20:21:27.636Z,100852.05
2022-11-09T20:24:16.248Z,100849.67
2022-11-09T20:27:03.644Z,100850.34
2022-11-09T20:29:51.077Z,100848.73
2022-11-09T20:32:38.343Z,100843.55
2022-11-09T20:35:26.117Z,100846.62
2022-11-09T20:38:13.469Z,100853.16
2022-11-09T20:41:04.008Z,100853.66
2022-11-09T20:43:51.823Z,100853.11
2022-11-09T20:46:39.328Z,100847.20
2022-11-09T20:49:26.497Z,100843.87
2022-11-09T20:52:14.418Z,100841.06
2022-11-09T20:55:01.865Z,100844.00
2022-11-09T20:57:49.314Z,100843.41
2022-11-09T21:00:37.088Z,100837.88
2022-11-09T21:03:28.523Z,100841.03
2022-11-09T21:06:16.267Z,100848.58
2022-11-09T21:09:05.590Z,100847.44
2022-11-09T21:12:11.265Z,100846.15
2022-11-09T21:14:58.495Z,100849.52
2022-11-09T21:17:47.389Z,100849.39
2022-11-09T21:20:35.412Z,100853.65
2022-11-09T21:23:41.294Z,100856.13
2022-11-09T21:26:48.652Z,100855.11
2022-11-09T21:30:00.718Z,100848.41
2022-11-09T21:32:53.525Z,100847.13
2022-11-09T21:35:41.230Z,100844.15
2022-11-09T21:38:36.770Z,100841.30
2022-11-09T21:41:45.300Z,100843.96
2022-11-09T21:44:34.186Z,100839.89
2022-11-09T21:47:26.291Z,100840.89
2022-11-09T21:50:13.758Z,100842.30
2022-11-09T21:53:01.283Z,100842.13
2022-11-09T21:55:48.551Z,100840.27
2022-11-09T21:58:36.644Z,100836.20
2022-11-09T22:01:24.952Z,100835.61
2022-11-09T22:04:13.165Z,100841.30
2022-11-09T22:07:01.026Z,100841.61
2022-11-09T22:10:09.507Z,100845.77
2022-11-09T22:13:19.058Z,100849.82
2022-11-09T22:16:08.864Z,100850.81
2022-11-09T22:19:15.353Z,100848.58
2022-11-09T22:22:02.693Z,100853.05
2022-11-09T22:24:50.064Z,100849.83
2022-11-09T22:27:37.741Z,100849.46
2022-11-09T22:30:25.176Z,100857.18
2022-11-09T22:33:13.863Z,100860.60
2022-11-09T22:36:03.374Z,100859.00
2022-11-09T22:38:50.873Z,100858.80
2022-11-09T22:41:38.581Z,100853.02
2022-11-09T22:44:26.144Z,100854.69
2022-11-09T22:47:13.736Z,100861.54
2022-11-09T22:50:01.070Z,100863.77
2022-11-09T22:52:53.344Z,100866.39
2022-11-09T22:55:41.653Z,100869.95
2022-11-09T22:58:30.998Z,100872.34
2022-11-09T23:01:20.590Z,100868.98
2022-11-09T23:04:09.756Z,100875.90
2022-11-09T23:06:57.244Z,100878.48
2022-11-09T23:09:47.266Z,100880.09
2022-11-09T23:12:35.121Z,100874.97
2022-11-09T23:15:22.840Z,100874.82
2022-11-09T23:18:32.240Z,100878.70
2022-11-09T23:21:20.738Z,100873.30
2022-11-09T23:24:29.564Z,100876.00
2022-11-09T23:27:19.749Z,100876.34
2022-11-09T23:30:08.677Z,100873.60
2022-11-09T23:32:56.074Z,100881.04
2022-11-09T23:35:43.928Z,100881.94
2022-11-09T23:38:35.810Z,100882.65
2022-11-09T23:41:23.479Z,100885.88
2022-11-09T23:44:10.941Z,100892.96
2022-11-09T23:46:58.688Z,100893.30
2022-11-09T23:49:46.126Z,100900.68
2022-11-09T23:52:34.239Z,100892.98
2022-11-09T23:55:22.331Z,100898.58
2022-11-09T23:58:12.467Z,100895.42
